createdAt,value
2023-02-06T00:01:28.895Z,80.86
2023-02-06T00:03:57.308Z,81.40
2023-02-06T00:06:31.707Z,81.09
2023-02-06T00:09:03.760Z,80.19
2023-02-06T00:11:32.035Z,79.89
2023-02-06T00:14:00.537Z,79.66
2023-02-06T00:16:48.899Z,80.77
2023-02-06T00:19:18.780Z,81.19
2023-02-06T00:21:47.155Z,81.57
2023-02-06T00:24:15.564Z,81.08
2023-02-06T00:26:44.419Z,79.87
2023-02-06T00:29:13.414Z,80.48
2023-02-06T00:31:41.854Z,80.80
2023-02-06T00:34:10.272Z,81.32
2023-02-06T00:36:39.273Z,81.99
2023-02-06T00:39:07.793Z,81.57
2023-02-06T00:41:38.790Z,80.92
2023-02-06T00:44:07.268Z,81.22
2023-02-06T00:46:36.049Z,81.31
2023-02-06T00:49:04.744Z,81.77
2023-02-06T00:51:36.506Z,82.55
2023-02-06T00:54:05.406Z,82.57
2023-02-06T00:56:34.692Z,81.38
2023-02-06T00:59:04.037Z,81.04
2023-02-06T01:01:34.487Z,81.23
2023-02-06T01:04:03.100Z,81.51
2023-02-06T01:06:51.650Z,82.12
2023-02-06T01:09:20.334Z,82.04
2023-02-06T01:11:48.851Z,80.67
2023-02-06T01:14:17.496Z,80.62
2023-02-06T01:16:45.979Z,80.19
2023-02-06T01:19:15.789Z,81.18
2023-02-06T01:21:44.898Z,81.99
2023-02-06T01:24:13.266Z,82.75
2023-02-06T01:26:41.967Z,82.37
2023-02-06T01:29:10.333Z,80.80
2023-02-06T01:31:38.845Z,80.37
2023-02-06T01:34:08.316Z,80.87
2023-02-06T01:36:38.735Z,81.36
2023-02-06T01:39:07.876Z,82.33
2023-02-06T01:41:36.521Z,82.95
2023-02-06T01:44:15.140Z,82.25
2023-02-06T01:46:45.289Z,80.98
2023-02-06T01:49:25.617Z,80.70
2023-02-06T01:51:55.458Z,80.94
2023-02-06T01:54:24.110Z,81.80
2023-02-06T01:56:54.808Z,82.60
2023-02-06T01:59:23.250Z,83.07
2023-02-06T02:01:51.619Z,81.85
2023-02-06T02:04:21.669Z,81.39
2023-02-06T02:07:08.737Z,81.98
2023-02-06T02:09:37.261Z,82.09
2023-02-06T02:12:09.197Z,82.79
2023-02-06T02:14:40.660Z,82.84
2023-02-06T02:17:15.564Z,81.60
2023-02-06T02:19:50.084Z,80.89
2023-02-06T02:22:33.825Z,81.21
2023-02-06T02:25:05.139Z,81.78
2023-02-06T02:28:18.953Z,82.39
2023-02-06T02:31:10.666Z,82.34
2023-02-06T02:34:04.022Z,81.66
2023-02-06T02:36:47.262Z,81.39
2023-02-06T02:39:21.350Z,82.00
2023-02-06T02:42:09.931Z,82.44
2023-02-06T02:44:53.326Z,83.09
2023-02-06T02:47:24.890Z,81.99
2023-02-06T02:49:53.052Z,81.21
2023-02-06T02:52:21.672Z,81.38
2023-02-06T02:54:50.426Z,81.89
2023-02-06T02:57:22.855Z,82.73
2023-02-06T02:59:51.104Z,83.24
2023-02-06T03:02:24.718Z,81.97
2023-02-06T03:04:58.133Z,80.73
2023-02-06T03:07:30.636Z,81.43
2023-02-06T03:10:31.614Z,81.95
2023-02-06T03:13:23.613Z,82.72
2023-02-06T03:16:01.615Z,82.52
2023-02-06T03:18:59.707Z,81.22
2023-02-06T03:21:29.604Z,80.87
2023-02-06T03:23:59.608Z,81.40
2023-02-06T03:26:29.249Z,81.92
2023-02-06T03:29:00.929Z,82.61
2023-02-06T03:31:36.461Z,82.94
2023-02-06T03:34:15.460Z,81.31
2023-02-06T03:36:44.416Z,81.17
2023-02-06T03:39:12.830Z,81.35
2023-02-06T03:41:41.308Z,81.92
2023-02-06T03:44:10.980Z,82.76
2023-02-06T03:46:42.268Z,83.55
2023-02-06T03:49:12.596Z,82.17
2023-02-06T03:51:46.848Z,81.69
2023-02-06T03:54:17.809Z,82.09
2023-02-06T03:56:48.832Z,82.57
2023-02-06T03:59:17.572Z,83.34
2023-02-06T04:01:48.336Z,83.89
2023-02-06T04:04:20.581Z,83.24
2023-02-06T04:06:49.157Z,82.23
2023-02-06T04:09:17.694Z,81.83
2023-02-06T04:11:46.116Z,82.00
2023-02-06T04:14:15.214Z,82.90
2023-02-06T04:16:43.565Z,83.35
2023-02-06T04:19:12.179Z,83.50
2023-02-06T04:21:40.764Z,82.19
2023-02-06T04:24:09.250Z,81.85
2023-02-06T04:26:37.936Z,81.75
2023-02-06T04:29:06.748Z,81.83
2023-02-06T04:31:35.266Z,82.38
2023-02-06T04:34:04.081Z,82.96
2023-02-06T04:36:33.206Z,82.63
2023-02-06T04:39:01.761Z,81.77
2023-02-06T04:41:30.137Z,81.56
2023-02-06T04:43:58.639Z,81.78
2023-02-06T04:46:27.251Z,82.09
2023-02-06T04:48:55.888Z,82.72
2023-02-06T04:51:24.387Z,82.43
2023-02-06T04:53:53.054Z,81.13
2023-02-06T04:56:21.479Z,81.02
2023-02-06T04:58:49.916Z,81.33
2023-02-06T05:01:18.610Z,82.13
2023-02-06T05:03:47.619Z,82.58
2023-02-06T05:06:16.806Z,82.72
2023-02-06T05:08:45.062Z,81.66
2023-02-06T05:11:17.569Z,80.46
2023-02-06T05:13:45.827Z,80.43
2023-02-06T05:16:15.942Z,81.26
2023-02-06T05:18:47.448Z,81.52
2023-02-06T05:21:16.067Z,82.28
2023-02-06T05:23:44.545Z,82.29
2023-02-06T05:26:12.872Z,80.89
2023-02-06T05:28:41.812Z,80.48
2023-02-06T05:31:10.516Z,80.80
2023-02-06T05:33:39.400Z,81.94
2023-02-06T05:36:08.583Z,82.44
2023-02-06T05:38:37.370Z,82.59
2023-02-06T05:41:06.271Z,81.44
2023-02-06T05:43:34.646Z,80.34
2023-02-06T05:46:03.168Z,80.02
2023-02-06T05:48:31.602Z,80.95
2023-02-06T05:51:00.500Z,81.60
2023-02-06T05:53:28.880Z,82.04
2023-02-06T05:55:57.462Z,81.31
2023-02-06T05:58:26.250Z,79.85
2023-02-06T06:00:54.483Z,79.84
2023-02-06T06:03:23.515Z,80.68
2023-02-06T06:05:53.741Z,81.18
2023-02-06T06:08:22.224Z,81.37
2023-02-06T06:10:51.935Z,81.12
2023-02-06T06:13:21.741Z,80.00
2023-02-06T06:15:52.116Z,79.02
2023-02-06T06:18:21.160Z,79.36
2023-02-06T06:20:49.549Z,79.43
2023-02-06T06:23:18.117Z,80.20
2023-02-06T06:25:47.425Z,80.62
2023-02-06T06:28:16.559Z,80.79
2023-02-06T06:30:44.907Z,79.83
2023-02-06T06:33:15.512Z,78.63
2023-02-06T06:35:44.135Z,78.68
2023-02-06T06:38:13.010Z,79.73
2023-02-06T06:40:41.477Z,80.41
2023-02-06T06:43:10.480Z,80.99
2023-02-06T06:45:39.616Z,81.06
2023-02-06T06:48:08.525Z,79.39
2023-02-06T06:50:36.948Z,78.70
2023-02-06T06:53:05.514Z,79.18
2023-02-06T06:55:34.951Z,79.50
2023-02-06T06:58:03.398Z,79.94
2023-02-06T07:00:31.929Z,80.05
2023-02-06T07:03:00.655Z,80.14
2023-02-06T07:05:29.862Z,78.62
2023-02-06T07:07:58.556Z,77.39
2023-02-06T07:10:27.669Z,77.65
2023-02-06T07:12:57.153Z,78.49
2023-02-06T07:15:26.039Z,79.37
2023-02-06T07:17:56.365Z,79.93
2023-02-06T07:20:25.150Z,80.67
2023-02-06T07:22:53.952Z,81.86
2023-02-06T07:25:23.147Z,80.67
2023-02-06T07:27:51.904Z,79.81
2023-02-06T07:30:20.892Z,79.64
2023-02-06T07:32:50.535Z,79.68
2023-02-06T07:35:19.212Z,80.31
2023-02-06T07:37:47.593Z,81.15
2023-02-06T07:40:16.375Z,81.29
2023-02-06T07:42:45.374Z,81.85
2023-02-06T07:45:22.356Z,80.02
2023-02-06T07:47:52.234Z,78.58
2023-02-06T07:50:21.152Z,79.00
2023-02-06T07:52:49.573Z,79.76
2023-02-06T07:55:18.121Z,79.94
2023-02-06T07:57:46.594Z,79.58
2023-02-06T08:00:16.667Z,80.02
2023-02-06T08:02:45.915Z,79.07
2023-02-06T08:05:14.497Z,77.62
2023-02-06T08:07:43.314Z,76.92
2023-02-06T08:10:11.869Z,76.80
2023-02-06T08:13:00.331Z,76.04
2023-02-06T08:15:29.005Z,76.54
2023-02-06T08:17:57.737Z,77.20
2023-02-06T08:20:26.683Z,77.27
2023-02-06T08:22:55.054Z,77.10
2023-02-06T08:25:23.464Z,77.66
2023-02-06T08:27:55.683Z,75.70
2023-02-06T08:30:24.614Z,75.42
2023-02-06T08:32:53.379Z,75.26
2023-02-06T08:35:21.965Z,75.72
2023-02-06T08:37:50.961Z,76.44
2023-02-06T08:40:21.488Z,75.92
2023-02-06T08:42:51.507Z,75.50
2023-02-06T08:45:19.882Z,77.11
2023-02-06T08:47:48.769Z,78.00
2023-02-06T08:50:17.356Z,77.45
2023-02-06T08:52:46.241Z,76.19
2023-02-06T08:55:14.852Z,74.90
2023-02-06T08:57:43.408Z,75.53
2023-02-06T09:00:13.119Z,75.68
2023-02-06T09:02:41.486Z,75.61
2023-02-06T09:05:10.180Z,75.35
2023-02-06T09:07:38.667Z,74.87
2023-02-06T09:10:11.605Z,74.84
2023-02-06T09:12:45.153Z,75.06
2023-02-06T09:15:13.729Z,75.44
2023-02-06T09:17:46.104Z,75.07
2023-02-06T09:20:14.891Z,74.86
2023-02-06T09:22:44.865Z,75.49
2023-02-06T09:25:13.311Z,75.37
2023-02-06T09:27:44.072Z,74.24
2023-02-06T09:30:14.486Z,72.74
2023-02-06T09:32:43.550Z,71.79
2023-02-06T09:35:12.321Z,71.55
2023-02-06T09:37:43.052Z,71.11
2023-02-06T09:40:12.915Z,71.38
2023-02-06T09:42:41.350Z,71.65
2023-02-06T09:45:19.196Z,70.33
2023-02-06T09:48:18.346Z,70.40
2023-02-06T09:51:02.479Z,70.07
2023-02-06T09:53:59.244Z,69.46
2023-02-06T09:56:40.118Z,68.65
2023-02-06T09:59:27.361Z,68.12
2023-02-06T10:02:18.846Z,67.25
2023-02-06T10:04:57.948Z,67.94
2023-02-06T10:07:35.889Z,68.53
2023-02-06T10:10:14.237Z,68.78
2023-02-06T10:12:46.140Z,69.71
2023-02-06T10:15:24.413Z,69.57
2023-02-06T10:17:59.199Z,69.61
2023-02-06T10:20:40.682Z,71.11
2023-02-06T10:23:13.258Z,70.83
2023-02-06T10:25:51.872Z,68.59
2023-02-06T10:28:27.791Z,68.07
2023-02-06T10:31:18.162Z,67.05
2023-02-06T10:33:49.882Z,67.54
2023-02-06T10:36:49.945Z,67.99
2023-02-06T10:39:37.465Z,67.48
2023-02-06T10:42:37.297Z,66.67
2023-02-06T10:45:24.793Z,66.69
2023-02-06T10:47:59.504Z,67.83
2023-02-06T10:50:32.177Z,67.25
2023-02-06T10:53:04.481Z,67.70
2023-02-06T10:55:55.871Z,66.85
2023-02-06T10:58:54.839Z,65.61
2023-02-06T11:01:26.433Z,64.84
2023-02-06T11:04:18.522Z,64.30
2023-02-06T11:06:47.770Z,64.46
2023-02-06T11:09:16.050Z,64.29
2023-02-06T11:11:48.806Z,64.04
2023-02-06T11:14:24.939Z,63.25
2023-02-06T11:16:53.757Z,64.17
2023-02-06T11:19:53.083Z,63.67
2023-02-06T11:22:30.139Z,64.26
2023-02-06T11:25:08.040Z,64.97
2023-02-06T11:27:36.596Z,64.76
2023-02-06T11:30:20.743Z,65.02
2023-02-06T11:33:03.605Z,66.02
2023-02-06T11:35:41.679Z,65.74
2023-02-06T11:38:21.466Z,66.03
2023-02-06T11:41:01.323Z,65.54
2023-02-06T11:43:34.075Z,65.16
2023-02-06T11:46:30.298Z,64.95
2023-02-06T11:49:02.794Z,64.84
2023-02-06T11:52:01.571Z,65.04
2023-02-06T11:54:32.187Z,64.56
2023-02-06T11:57:08.096Z,64.43
2023-02-06T11:59:37.449Z,64.96
2023-02-06T12:02:32.303Z,63.83
2023-02-06T12:05:15.799Z,63.59
2023-02-06T12:07:46.556Z,63.70
2023-02-06T12:10:19.710Z,64.73
2023-02-06T12:12:53.410Z,64.33
2023-02-06T12:15:46.127Z,64.23
2023-02-06T12:18:44.645Z,64.00
2023-02-06T12:21:15.914Z,65.35
2023-02-06T12:23:56.864Z,64.95
2023-02-06T12:26:28.029Z,65.18
2023-02-06T12:29:03.837Z,64.85
2023-02-06T12:31:42.092Z,65.04
2023-02-06T12:34:14.649Z,64.88
2023-02-06T12:36:53.863Z,64.28
2023-02-06T12:39:24.137Z,64.76
2023-02-06T12:42:19.100Z,63.38
2023-02-06T12:45:27.729Z,64.09
2023-02-06T12:48:11.939Z,64.01
2023-02-06T12:51:13.421Z,63.42
2023-02-06T12:53:54.471Z,64.07
2023-02-06T12:56:28.364Z,64.20
2023-02-06T12:59:09.384Z,64.64
2023-02-06T13:01:41.278Z,65.59
2023-02-06T13:04:36.342Z,66.97
2023-02-06T13:07:14.823Z,66.78
2023-02-06T13:09:54.264Z,65.95
2023-02-06T13:12:25.267Z,65.70
2023-02-06T13:14:54.962Z,65.83
2023-02-06T13:17:28.140Z,66.25
2023-02-06T13:20:03.933Z,66.58
2023-02-06T13:22:40.232Z,67.66
2023-02-06T13:25:30.891Z,68.42
2023-02-06T13:28:22.854Z,69.33
2023-02-06T13:31:08.208Z,68.96
2023-02-06T13:33:44.887Z,68.76
2023-02-06T13:36:18.525Z,69.23
2023-02-06T13:38:46.750Z,69.77
2023-02-06T13:41:27.791Z,68.71
2023-02-06T13:44:06.955Z,67.62
2023-02-06T13:47:00.500Z,68.27
2023-02-06T13:49:55.387Z,68.58
2023-02-06T13:52:43.838Z,69.55
2023-02-06T13:55:15.690Z,70.24
2023-02-06T13:57:55.237Z,71.17
2023-02-06T14:00:30.272Z,70.62
2023-02-06T14:03:06.855Z,70.53
2023-02-06T14:05:41.261Z,70.73
2023-02-06T14:08:18.561Z,70.97
2023-02-06T14:11:05.763Z,71.65
2023-02-06T14:13:39.892Z,70.61
2023-02-06T14:16:11.991Z,69.55
2023-02-06T14:19:02.300Z,69.22
2023-02-06T14:21:42.695Z,69.49
2023-02-06T14:24:17.259Z,69.97
2023-02-06T14:26:50.634Z,70.86
2023-02-06T14:29:22.070Z,71.52
2023-02-06T14:32:13.609Z,71.95
2023-02-06T14:35:12.991Z,72.97
2023-02-06T14:37:57.444Z,71.87
2023-02-06T14:40:27.726Z,70.38
2023-02-06T14:42:57.711Z,70.78
2023-02-06T14:45:42.106Z,71.45
2023-02-06T14:48:29.518Z,71.56
2023-02-06T14:50:58.150Z,72.22
2023-02-06T14:53:32.391Z,72.59
2023-02-06T14:56:17.322Z,72.96
2023-02-06T14:58:46.665Z,72.45
2023-02-06T15:01:18.186Z,72.79
2023-02-06T15:03:48.496Z,71.98
2023-02-06T15:06:36.751Z,70.81
2023-02-06T15:09:06.042Z,70.47
2023-02-06T15:11:34.838Z,70.74
2023-02-06T15:14:05.976Z,71.41
2023-02-06T15:16:50.842Z,71.77
2023-02-06T15:19:22.071Z,71.40
2023-02-06T15:21:52.873Z,71.91
2023-02-06T15:24:52.444Z,72.09
2023-02-06T15:27:32.276Z,72.26
2023-02-06T15:30:01.720Z,71.81
2023-02-06T15:32:37.496Z,69.74
2023-02-06T15:35:41.452Z,68.72
2023-02-06T15:38:14.644Z,69.14
2023-02-06T15:40:44.757Z,69.66
2023-02-06T15:43:20.273Z,70.24
2023-02-06T15:45:50.442Z,70.79
2023-02-06T15:48:34.187Z,71.35
2023-02-06T15:51:08.582Z,72.04
2023-02-06T15:53:41.563Z,72.57
2023-02-06T15:56:28.685Z,73.76
2023-02-06T15:59:02.859Z,74.19
2023-02-06T16:01:37.366Z,72.32
2023-02-06T16:04:12.448Z,70.58
2023-02-06T16:06:40.935Z,69.90
2023-02-06T16:09:18.926Z,70.03
2023-02-06T16:11:47.730Z,70.81
2023-02-06T16:14:40.371Z,71.61
2023-02-06T16:21:27.748Z,73.27
2023-02-06T16:24:05.740Z,73.42
2023-02-06T16:26:41.272Z,74.45
2023-02-06T16:29:08.605Z,75.42
2023-02-06T16:31:40.507Z,75.94
2023-02-06T16:34:20.249Z,74.97
2023-02-06T16:36:48.186Z,72.44
2023-02-06T16:39:15.428Z,71.47
2023-02-06T16:41:42.909Z,71.65
2023-02-06T16:44:12.422Z,72.13
2023-02-06T16:46:39.844Z,73.24
2023-02-06T16:49:15.264Z,73.82
2023-02-06T16:51:43.375Z,74.63
2023-02-06T16:54:26.799Z,75.36
2023-02-06T16:56:54.960Z,76.41
2023-02-06T16:59:22.355Z,77.07
2023-02-06T17:01:49.682Z,77.73
2023-02-06T17:04:16.707Z,78.13
2023-02-06T17:06:44.075Z,76.96
2023-02-06T17:09:14.291Z,74.05
2023-02-06T17:11:41.684Z,72.92
2023-02-06T17:14:10.844Z,72.24
2023-02-06T17:16:38.916Z,72.92
2023-02-06T17:19:06.582Z,73.56
2023-02-06T17:21:34.160Z,74.45
2023-02-06T17:24:01.334Z,74.87
2023-02-06T17:26:28.655Z,76.05
2023-02-06T17:28:55.793Z,76.76
2023-02-06T17:31:23.067Z,77.54
2023-02-06T17:33:50.396Z,78.01
2023-02-06T17:36:28.790Z,77.71
2023-02-06T17:38:58.434Z,74.62
2023-02-06T17:41:26.720Z,73.66
2023-02-06T17:43:53.953Z,73.62
2023-02-06T17:46:21.034Z,73.73
2023-02-06T17:48:48.142Z,74.43
2023-02-06T17:51:15.743Z,74.86
2023-02-06T17:53:49.851Z,75.38
2023-02-06T17:56:17.017Z,76.61
2023-02-06T17:58:44.420Z,77.26
2023-02-06T18:01:12.874Z,77.84
2023-02-06T18:03:40.879Z,77.14
2023-02-06T18:06:08.633Z,75.22
2023-02-06T18:08:36.191Z,73.70
2023-02-06T18:11:11.636Z,73.74
2023-02-06T18:13:39.817Z,74.27
2023-02-06T18:16:28.157Z,75.30
2023-02-06T18:18:55.429Z,76.55
2023-02-06T18:21:24.296Z,77.02
2023-02-06T18:23:51.965Z,77.13
2023-02-06T18:26:19.110Z,77.20
2023-02-06T18:28:46.665Z,76.92
2023-02-06T18:31:32.808Z,75.01
2023-02-06T18:34:02.203Z,74.20
2023-02-06T18:36:32.076Z,74.77
2023-02-06T18:39:01.576Z,75.11
2023-02-06T18:41:47.811Z,75.86
2023-02-06T18:44:15.225Z,75.79
2023-02-06T18:46:43.160Z,76.84
2023-02-06T18:49:11.881Z,77.22
2023-02-06T18:51:39.583Z,77.76
2023-02-06T18:54:07.513Z,76.80
2023-02-06T18:56:34.866Z,74.67
2023-02-06T18:59:03.548Z,74.25
2023-02-06T19:01:31.490Z,74.03
2023-02-06T19:03:59.079Z,74.58
2023-02-06T19:06:31.163Z,75.10
2023-02-06T19:09:00.159Z,75.26
2023-02-06T19:11:27.746Z,75.82
2023-02-06T19:13:54.956Z,76.03
2023-02-06T19:16:27.901Z,74.32
2023-02-06T19:18:54.885Z,72.82
2023-02-06T19:21:23.758Z,72.92
2023-02-06T19:24:00.988Z,73.67
2023-02-06T19:26:29.242Z,74.60
2023-02-06T19:28:57.974Z,75.22
2023-02-06T19:31:27.886Z,75.65
2023-02-06T19:33:57.646Z,76.23
2023-02-06T19:36:26.349Z,77.06
2023-02-06T19:38:55.326Z,75.60
2023-02-06T19:41:24.857Z,73.66
2023-02-06T19:43:52.582Z,72.69
2023-02-06T19:46:21.885Z,72.72
2023-02-06T19:48:50.510Z,73.03
2023-02-06T19:51:29.020Z,73.50
2023-02-06T19:53:56.755Z,74.38
2023-02-06T19:56:34.133Z,75.31
2023-02-06T19:59:20.355Z,75.20
2023-02-06T20:01:57.512Z,75.75
2023-02-06T20:04:29.782Z,74.62
2023-02-06T20:06:57.035Z,72.99
2023-02-06T20:09:24.917Z,72.00
2023-02-06T20:11:53.699Z,72.49
2023-02-06T20:14:21.457Z,73.47
2023-02-06T20:16:49.090Z,73.84
2023-02-06T20:19:18.760Z,74.24
2023-02-06T20:21:48.550Z,74.79
2023-02-06T20:24:18.144Z,74.53
2023-02-06T20:26:45.141Z,74.74
2023-02-06T20:29:20.989Z,73.03
2023-02-06T20:31:49.242Z,71.72
2023-02-06T20:34:16.888Z,70.83
2023-02-06T20:36:44.550Z,70.98
2023-02-06T20:39:12.411Z,71.31
2023-02-06T20:41:40.504Z,72.16
2023-02-06T20:44:07.933Z,72.62
2023-02-06T20:46:36.313Z,73.27
2023-02-06T20:49:11.960Z,73.76
2023-02-06T20:51:39.105Z,74.44
2023-02-06T20:54:06.136Z,74.45
2023-02-06T20:56:34.017Z,74.17
2023-02-06T20:59:01.607Z,71.93
2023-02-06T21:01:30.520Z,70.49
2023-02-06T21:04:04.190Z,70.64
2023-02-06T21:06:33.349Z,71.10
2023-02-06T21:09:00.881Z,71.65
2023-02-06T21:11:33.521Z,72.26
2023-02-06T21:14:01.786Z,73.04
2023-02-06T21:16:29.861Z,73.54
2023-02-06T21:25:33.632Z,73.81
2023-02-06T21:28:02.313Z,71.22
2023-02-06T21:30:32.125Z,69.90
2023-02-06T21:33:00.605Z,70.18
2023-02-06T21:35:30.602Z,70.79
2023-02-06T21:37:59.074Z,71.18
2023-02-06T21:40:27.557Z,71.76
2023-02-06T21:42:56.548Z,72.12
2023-02-06T21:45:24.726Z,72.59
2023-02-06T21:47:53.555Z,73.10
2023-02-06T21:50:22.194Z,73.26
2023-02-06T21:52:51.537Z,73.41
2023-02-06T21:55:19.902Z,71.73
2023-02-06T21:57:48.568Z,70.68
2023-02-06T22:00:17.188Z,70.57
2023-02-06T22:02:45.630Z,70.73
2023-02-06T22:05:14.313Z,71.52
2023-02-06T22:07:43.629Z,71.85
2023-02-06T22:10:15.069Z,72.47
2023-02-06T22:12:43.742Z,73.44
2023-02-06T22:15:12.225Z,74.08
2023-02-06T22:17:41.534Z,74.40
2023-02-06T22:20:10.617Z,73.42
2023-02-06T22:22:39.926Z,71.93
2023-02-06T22:25:11.578Z,72.25
2023-02-06T22:27:40.976Z,72.96
2023-02-06T22:30:11.228Z,73.53
2023-02-06T22:32:40.393Z,74.55
2023-02-06T22:35:08.971Z,75.42
2023-02-06T22:37:39.116Z,76.02
2023-02-06T22:40:08.288Z,76.82
2023-02-06T22:42:38.302Z,76.29
2023-02-06T22:45:07.525Z,75.17
2023-02-06T22:47:35.893Z,75.66
2023-02-06T22:50:04.666Z,76.21
2023-02-06T22:52:52.299Z,76.35
2023-02-06T22:55:20.813Z,77.15
2023-02-06T22:57:49.565Z,77.68
2023-02-06T23:00:18.783Z,78.12
2023-02-06T23:02:47.858Z,76.53
2023-02-06T23:05:16.133Z,75.70
2023-02-06T23:07:44.729Z,75.98
2023-02-06T23:10:13.229Z,76.26
2023-02-06T23:12:42.089Z,76.72
2023-02-06T23:15:10.616Z,77.23
2023-02-06T23:17:39.057Z,78.18
2023-02-06T23:20:08.351Z,78.72
2023-02-06T23:22:37.039Z,77.13
2023-02-06T23:25:06.443Z,75.69
2023-02-06T23:27:35.433Z,75.34
2023-02-06T23:30:04.642Z,75.67
2023-02-06T23:32:33.223Z,75.88
2023-02-06T23:35:02.000Z,76.63
2023-02-06T23:37:30.606Z,77.45
2023-02-06T23:39:59.677Z,77.91
2023-02-06T23:42:29.284Z,77.69
2023-02-06T23:44:57.558Z,75.87
2023-02-06T23:47:26.037Z,75.32
2023-02-06T23:49:54.662Z,75.82
2023-02-06T23:52:23.140Z,76.79
2023-02-06T23:54:51.790Z,77.84
2023-02-06T23:57:20.296Z,78.41
2023-02-06T23:59:49.059Z,79.09
